Flight Track Log - Related Links

Times and Time Zones

All times are in EDT time to prevent confusion due to time zone crossing. See the MAS193 flight status page for this flight to view local times or setup timezone preferences in your user account.


Time Position Orientation Groundspeed Altitude Reporting Facility
EDT Latitude Longitude Course Direction KTS MPH feet Rate Location/Type
Fri 03:22:27 PM 13.2070 77.7280 91° East 179 206 3,900  Level FlightAware ADS-B
Fri 03:22:57 PM 13.2060 77.7550 92° East 207 238 4,600 1,309 Climbing FlightAware ADS-B
Fri 03:23:22 PM 13.2060 77.7830 90° East 241 277 5,100 1,091 Climbing FlightAware ADS-B
Fri 03:23:52 PM 13.2060 77.8180 90° East 282 325 5,600 982 Climbing FlightAware ADS-B
Fri 03:24:17 PM 13.2060 77.8510 90° East 314 361 6,000 1,067 Climbing FlightAware ADS-B
Fri 03:24:37 PM 13.2050 77.8850 92° East 338 389 6,400 2,133 Climbing FlightAware ADS-B
Fri 03:25:02 PM 13.2000 77.9280 97° East 343 395 7,600 2,880 Climbing FlightAware ADS-B
Fri 03:25:27 PM 13.1860 77.9630 112° Southeast 345 397 8,800 2,509 Climbing FlightAware ADS-B
Fri 03:25:57 PM 13.1660 78.0100 114° Southeast 356 410 9,900 2,400 Climbing FlightAware ADS-B
Fri 03:26:42 PM 13.1340 78.0820 115° Southeast 367 422 11,800 2,612 Climbing FlightAware ADS-B
Fri 03:27:22 PM 13.1060 78.1460 114° Southeast 367 422 13,600 2,475 Climbing FlightAware ADS-B
Fri 03:28:02 PM 13.0780 78.2100 114° Southeast 375 432 15,100 1,835 Climbing FlightAware ADS-B
Fri 03:28:47 PM 13.0460 78.2830 114° Southeast 396 456 16,200 1,694 Climbing FlightAware ADS-B
Fri 03:29:27 PM 13.0150 78.3530 114° Southeast 403 464 17,500 1,976 Climbing FlightAware ADS-B
Fri 03:30:12 PM 12.9840 78.4350 111° Southeast 409 471 19,000 1,694 Climbing FlightAware ADS-B
Fri 03:30:52 PM 12.9630 78.5110 106° East 423 487 19,900 1,500 Climbing FlightAware ADS-B
Fri 03:31:32 PM 12.9410 78.5890 106° East 429 494 21,000 1,624 Climbing FlightAware ADS-B
Fri 03:32:17 PM 12.9170 78.6750 106° East 433 498 22,200 1,412 Climbing FlightAware ADS-B
Fri 03:32:57 PM 12.8950 78.7550 106° East 443 510 23,000 1,129 Climbing FlightAware ADS-B
Fri 03:33:42 PM 12.8690 78.8500 106° East 456 525 23,800 1,129 Climbing FlightAware ADS-B
Fri 03:34:22 PM 12.8460 78.9330 106° East 463 533 24,600 1,125 Climbing FlightAware ADS-B
Fri 03:35:02 PM 12.8220 79.0190 106° East 471 542 25,300 1,059 Climbing FlightAware ADS-B
Fri 03:35:47 PM 12.7960 79.1120 106° East 477 549 26,100 1,059 Climbing FlightAware ADS-B
Fri 03:36:27 PM 12.7710 79.2010 106° East 482 555 26,800 1,200 Climbing FlightAware ADS-B
Fri 03:37:12 PM 12.7430 79.3030 106° East 483 556 27,800 1,482 Climbing FlightAware ADS-B
Fri 03:37:52 PM 12.7190 79.3870 106° East 474 545 28,900 1,575 Climbing FlightAware ADS-B
Fri 03:38:32 PM 12.6950 79.4730 106° East 470 541 29,900 1,200 Climbing FlightAware ADS-B
Fri 03:39:07 PM 12.6760 79.5420 106° East 475 547 30,400 847 Climbing FlightAware ADS-B
Fri 03:39:57 PM 12.6470 79.6450 106° East 479 551 31,100 1,059 Climbing FlightAware ADS-B
Fri 03:40:32 PM 12.6240 79.7260 106° East 475 547 31,900 1,341 Climbing FlightAware ADS-B
Fri 03:41:22 PM 12.5950 79.8280 106° East 467 537 33,000 1,341 Climbing FlightAware ADS-B
Fri 03:41:57 PM 12.5730 79.9050 106° East 462 532 33,800 1,059 Climbing FlightAware ADS-B
Fri 03:42:47 PM 12.5410 80.0190 106° East 466 536 34,500 733 Climbing FlightAware ADS-B
Fri 03:43:27 PM 12.5190 80.0970 106° East 469 540 34,900 375 Climbing FlightAware ADS-B
Fri 03:44:07 PM 12.4930 80.1900 106° East 471 542 35,000 71 Climbing FlightAware ADS-B
Fri 03:44:52 PM 12.4650 80.2870 106° East 471 542 35,000  Level FlightAware ADS-B
Fri 03:45:27 PM 12.4450 80.3560 107° East 471 542 35,000  Level FlightAware ADS-B
Fri 03:46:12 PM 12.4200 80.4470 106° East 468 539 35,000  Level FlightAware ADS-B
Fri 03:46:57 PM 12.3900 80.5510 106° East 465 535 35,000  Level FlightAware ADS-B
Fri 03:47:37 PM 12.3690 80.6240 106° East 465 535 35,000  Level FlightAware ADS-B
Fri 03:48:17 PM 12.3430 80.7140 106° East 463 533 35,000  Level FlightAware ADS-B
Fri 03:49:02 PM 12.3170 80.8040 106° East 462 532 35,000  Level FlightAware ADS-B
Fri 03:49:47 PM 12.2920 80.8940 106° East 460 529 35,000  Level FlightAware ADS-B
Fri 03:50:22 PM 12.2680 80.9750 107° East 459 528 35,000  Level FlightAware ADS-B
Fri 03:51:17 PM 12.2370 81.0840 106° East 458 527 35,000  Level FlightAware ADS-B
Fri 03:51:57 PM 12.2150 81.1610 106° East 457 526 35,000  Level FlightAware ADS-B
Fri 03:52:47 PM 12.1840 81.2700 106° East 455 524 35,000  Level FlightAware ADS-B
Fri 03:53:22 PM 12.1620 81.3430 107° East 457 526 35,000  Level FlightAware ADS-B
Fri 03:54:12 PM 12.1330 81.4450 106° East 460 529 35,000  Level FlightAware ADS-B
Fri 03:54:52 PM 12.1090 81.5280 106° East 460 529 35,000  Level FlightAware ADS-B
Fri 03:55:37 PM 12.0820 81.6220 106° East 461 531 35,000  Level FlightAware ADS-B
Fri 03:56:17 PM 12.0570 81.7070 107° East 462 532 35,000  Level FlightAware ADS-B
Fri 03:56:57 PM 12.0310 81.7980 106° East 462 532 35,000  Level FlightAware ADS-B
Fri 03:57:42 PM 12.0070 81.8790 107° East 462 532 35,000  Level FlightAware ADS-B
Fri 03:58:22 PM 11.9810 81.9670 107° East 464 534 35,000  Level FlightAware ADS-B
Fri 03:59:02 PM 11.9570 82.0510 106° East 464 534 35,000  Level FlightAware ADS-B
Fri 03:59:42 PM 11.9340 82.1270 107° East 466 536 35,000  Level FlightAware ADS-B
Fri 04:00:22 PM 11.9080 82.2180 106° East 467 537 35,000  Level FlightAware ADS-B
Fri 04:01:07 PM 11.8840 82.3030 106° East 467 537 35,000  Level FlightAware ADS-B
Fri 04:01:47 PM 11.8640 82.3750 106° East 467 537 35,000  Level FlightAware ADS-B
Fri 04:02:37 PM 11.8390 82.4650 106° East 467 537 35,000  Level FlightAware ADS-B
Fri 04:03:17 PM 11.8180 82.5370 107° East 467 537 35,000  Level FlightAware ADS-B
Fri 04:03:57 PM 11.7980 82.6100 106° East 467 537 35,000  Level FlightAware ADS-B
Fri 04:04:37 PM 11.7780 82.6820 106° East 467 537 35,000  Level FlightAware ADS-B
Fri 04:05:17 PM 11.7580 82.7540 106° East 467 537 35,000  Level FlightAware ADS-B
Fri 04:06:07 PM 11.7320 82.8440 106° East 467 537 35,000  Level FlightAware ADS-B
Fri 04:06:47 PM 11.7120 82.9160 106° East 467 537 35,000  Level FlightAware ADS-B
Fri 04:07:27 PM 11.6920 82.9880 106° East 467 537 35,000  Level FlightAware ADS-B
Fri 04:08:07 PM 11.6720 83.0600 106° East 467 537 35,000  Level FlightAware ADS-B
Fri 04:08:47 PM 11.6510 83.1320 107° East 467 537 35,000  Level FlightAware ADS-B
Fri 04:09:37 PM 11.6260 83.2220 106° East 467 537 35,000  Level FlightAware ADS-B
Fri 04:10:17 PM 11.6060 83.2950 106° East 467 537 35,000  Level FlightAware ADS-B
Fri 04:12:00 PM 11.5274 83.4710 114° Southeast  Level Estimated
Fri 04:13:00 PM 11.4816 83.5734 115° Southeast  Level Estimated
Fri 04:14:00 PM 11.4357 83.6759 115° Southeast  Level Estimated
Fri 04:15:00 PM 11.3898 83.7783 115° Southeast  Level Estimated
Fri 04:16:00 PM 11.3439 83.8806 115° Southeast  Level Estimated
Fri 04:17:00 PM 11.2979 83.9829 115° Southeast  Level Estimated
Fri 04:18:00 PM 11.2519 84.0853 115° Southeast  Level Estimated
Fri 04:19:00 PM 11.2058 84.1875 115° Southeast  Level Estimated
Fri 04:20:00 PM 11.1597 84.2897 115° Southeast  Level Estimated
Fri 04:21:00 PM 11.1136 84.3919 115° Southeast  Level Estimated
Fri 04:22:00 PM 11.0675 84.4941 115° Southeast  Level Estimated
Fri 04:23:00 PM 11.0213 84.5962 115° Southeast  Level Estimated
Fri 04:24:00 PM 10.9751 84.6983 115° Southeast  Level Estimated
Fri 04:25:00 PM 10.9288 84.8004 115° Southeast  Level Estimated
Fri 04:26:00 PM 10.8825 84.9025 115° Southeast  Level Estimated
Fri 04:27:00 PM 10.8362 85.0045 115° Southeast  Level Estimated
Fri 04:28:00 PM 10.7899 85.1064 115° Southeast  Level Estimated
Fri 04:29:00 PM 10.7435 85.2084 115° Southeast  Level Estimated
Fri 04:30:00 PM 10.6970 85.3103 115° Southeast  Level Estimated
Fri 04:31:00 PM 10.6506 85.4122 115° Southeast  Level Estimated
Fri 04:32:00 PM 10.6041 85.5140 115° Southeast  Level Estimated
Fri 04:33:00 PM 10.5576 85.6158 115° Southeast  Level Estimated
Fri 04:34:00 PM 10.5110 85.7176 115° Southeast  Level Estimated
Fri 04:35:00 PM 10.4644 85.8194 115° Southeast  Level Estimated
Fri 04:36:00 PM 10.4178 85.9211 115° Southeast  Level Estimated
Fri 04:37:00 PM 10.3712 86.0228 115° Southeast  Level Estimated
Fri 04:38:00 PM 10.3245 86.1245 115° Southeast  Level Estimated
Fri 04:39:00 PM 10.2778 86.2261 115° Southeast  Level Estimated
Fri 04:40:00 PM 10.2310 86.3277 115° Southeast  Level Estimated
Fri 04:41:00 PM 10.1843 86.4293 115° Southeast  Level Estimated
Fri 04:42:00 PM 10.1375 86.5309 115° Southeast  Level Estimated
Fri 04:43:00 PM 10.0906 86.6324 115° Southeast  Level Estimated
Fri 04:44:00 PM 10.0437 86.7339 115° Southeast  Level Estimated
Fri 04:45:00 PM 9.9969 86.8353 115° Southeast  Level Estimated
Fri 04:46:00 PM 9.9499 86.9368 115° Southeast  Level Estimated
Fri 04:47:00 PM 9.9030 87.0382 115° Southeast  Level Estimated
Fri 04:48:00 PM 9.8560 87.1395 115° Southeast  Level Estimated
Fri 04:49:00 PM 9.8090 87.2409 115° Southeast  Level Estimated
Fri 04:50:00 PM 9.7619 87.3422 115° Southeast  Level Estimated
Fri 04:51:00 PM 9.7148 87.4435 115° Southeast  Level Estimated
Fri 04:52:00 PM 9.6677 87.5447 115° Southeast  Level Estimated
Fri 04:53:00 PM 9.6206 87.6460 115° Southeast  Level Estimated
Fri 04:54:00 PM 9.5734 87.7472 115° Southeast  Level Estimated
Fri 04:55:00 PM 9.5262 87.8483 115° Southeast  Level Estimated
Fri 04:56:00 PM 9.4782 87.9512 115° Southeast  Level Estimated
Fri 04:57:00 PM 9.4301 88.0541 115° Southeast  Level Estimated
Fri 04:58:00 PM 9.3820 88.1569 115° Southeast  Level Estimated
Fri 04:59:00 PM 9.3338 88.2597 115° Southeast  Level Estimated
Fri 05:00:00 PM 9.2857 88.3625 115° Southeast  Level Estimated
Fri 05:01:00 PM 9.2374 88.4653 115° Southeast  Level Estimated
Fri 05:02:00 PM 9.1892 88.5680 115° Southeast  Level Estimated
Fri 05:03:00 PM 9.1410 88.6707 115° Southeast  Level Estimated
Fri 05:04:00 PM 9.0927 88.7734 115° Southeast  Level Estimated
Fri 05:05:00 PM 9.0444 88.8760 115° Southeast  Level Estimated
Fri 05:06:00 PM 8.9960 88.9786 115° Southeast  Level Estimated
Fri 05:07:00 PM 8.9477 89.0812 116° Southeast  Level Estimated
Fri 05:08:00 PM 8.8993 89.1837 116° Southeast  Level Estimated
Fri 05:09:00 PM 8.8509 89.2863 116° Southeast  Level Estimated
Fri 05:10:00 PM 8.8024 89.3888 116° Southeast  Level Estimated
Fri 05:11:00 PM 8.7539 89.4913 116° Southeast  Level Estimated
Fri 05:12:00 PM 8.7054 89.5937 116° Southeast  Level Estimated
Fri 05:13:00 PM 8.6569 89.6961 116° Southeast  Level Estimated
Fri 05:14:00 PM 8.6083 89.7985 116° Southeast  Level Estimated
Fri 05:15:00 PM 8.5597 89.9009 116° Southeast  Level Estimated
Fri 05:16:00 PM 8.5111 90.0032 116° Southeast  Level Estimated
Fri 05:17:00 PM 8.4625 90.1056 116° Southeast  Level Estimated
Fri 05:18:00 PM 8.4138 90.2078 116° Southeast  Level Estimated
Fri 05:19:00 PM 8.3651 90.3101 116° Southeast  Level Estimated
Fri 05:20:00 PM 8.3164 90.4124 116° Southeast  Level Estimated
Fri 05:21:00 PM 8.2676 90.5146 116° Southeast  Level Estimated
Fri 05:22:00 PM 8.2189 90.6168 116° Southeast  Level Estimated
Fri 05:23:00 PM 8.1701 90.7189 116° Southeast  Level Estimated
Fri 05:24:00 PM 8.1212 90.8211 116° Southeast  Level Estimated
Fri 05:25:00 PM 8.0724 90.9232 116° Southeast  Level Estimated
Fri 05:26:00 PM 8.0235 91.0253 116° Southeast  Level Estimated
Fri 05:27:00 PM 7.9746 91.1274 116° Southeast  Level Estimated
Fri 05:28:00 PM 7.9257 91.2294 116° Southeast  Level Estimated
Fri 05:29:00 PM 7.8767 91.3314 116° Southeast  Level Estimated
Fri 05:30:00 PM 7.8278 91.4334 116° Southeast  Level Estimated
Fri 05:31:00 PM 7.7787 91.5354 116° Southeast  Level Estimated
Fri 05:32:00 PM 7.7297 91.6373 116° Southeast  Level Estimated
Fri 05:33:00 PM 7.6807 91.7393 116° Southeast  Level Estimated
Fri 05:34:00 PM 7.6316 91.8411 116° Southeast  Level Estimated
Fri 05:35:00 PM 7.5825 91.9430 116° Southeast  Level Estimated
Fri 05:36:00 PM 7.5334 92.0449 116° Southeast  Level Estimated
Fri 05:37:00 PM 7.4843 92.1467 116° Southeast  Level Estimated
Fri 05:38:00 PM 7.4351 92.2485 116° Southeast  Level Estimated
Fri 05:39:00 PM 7.3859 92.3503 116° Southeast  Level Estimated
Fri 05:40:00 PM 7.3367 92.4521 116° Southeast  Level Estimated
Fri 05:41:00 PM 7.2874 92.5538 116° Southeast  Level Estimated
Fri 05:42:00 PM 7.2382 92.6555 116° Southeast  Level Estimated
Fri 05:43:00 PM 7.1889 92.7572 116° Southeast  Level Estimated
Fri 05:44:00 PM 7.1396 92.8589 116° Southeast  Level Estimated
Fri 05:45:00 PM 7.0903 92.9605 116° Southeast  Level Estimated
Fri 05:46:00 PM 7.0409 93.0622 116° Southeast  Level Estimated
Fri 05:47:00 PM 6.9915 93.1638 116° Southeast  Level Estimated
Fri 05:48:00 PM 6.9422 93.2654 116° Southeast  Level Estimated
Fri 05:49:00 PM 6.8927 93.3669 116° Southeast  Level Estimated
Fri 05:50:00 PM 6.8433 93.4685 116° Southeast  Level Estimated
Fri 05:51:00 PM 6.7939 93.5700 116° Southeast  Level Estimated
Fri 05:52:00 PM 6.7444 93.6715 116° Southeast  Level Estimated
Fri 05:53:00 PM 6.6949 93.7729 116° Southeast  Level Estimated
Fri 05:54:00 PM 6.6454 93.8744 116° Southeast  Level Estimated
Fri 05:55:00 PM 6.5958 93.9759 116° Southeast  Level Estimated
Fri 05:56:00 PM 6.5463 94.0773 116° Southeast  Level Estimated
Fri 05:57:00 PM 6.4967 94.1787 116° Southeast  Level Estimated
Fri 05:58:00 PM 6.4471 94.2801 116° Southeast  Level Estimated
Fri 05:59:00 PM 6.3975 94.3814 116° Southeast  Level Estimated
Fri 06:00:00 PM 6.3478 94.4827 116° Southeast  Level Estimated
Fri 06:01:00 PM 6.2982 94.5841 116° Southeast  Level Estimated
Fri 06:02:00 PM 6.2485 94.6854 116° Southeast  Level Estimated
Fri 06:03:00 PM 6.1988 94.7867 116° Southeast  Level Estimated
Fri 06:04:00 PM 6.1491 94.8879 116° Southeast  Level Estimated
Fri 06:05:00 PM 6.0993 94.9892 116° Southeast  Level Estimated
Fri 06:06:00 PM 6.0496 95.0904 116° Southeast  Level Estimated
Fri 06:07:00 PM 5.9998 95.1916 116° Southeast  Level Estimated
Fri 06:08:00 PM 5.9500 95.2928 116° Southeast  Level Estimated
Fri 06:09:00 PM 5.9002 95.3939 116° Southeast  Level Estimated
Fri 06:10:00 PM 5.8503 95.4951 116° Southeast  Level Estimated
Fri 06:11:00 PM 5.8005 95.5962 116° Southeast  Level Estimated
Fri 06:12:00 PM 5.7506 95.6973 116° Southeast  Level Estimated
Fri 06:13:00 PM 5.7007 95.7984 116° Southeast  Level Estimated
Fri 06:14:00 PM 5.6508 95.8995 116° Southeast  Level Estimated
Fri 06:15:00 PM 5.6009 96.0006 116° Southeast  Level Estimated
Fri 06:16:00 PM 5.5510 96.1016 116° Southeast  Level Estimated
Fri 06:17:00 PM 5.5010 96.2026 116° Southeast  Level Estimated
Fri 06:18:00 PM 5.4511 96.3036 116° Southeast  Level Estimated
Fri 06:19:00 PM 5.4011 96.4046 116° Southeast  Level Estimated
Fri 06:20:00 PM 5.3511 96.5056 116° Southeast  Level Estimated
Fri 06:21:00 PM 5.3011 96.6066 116° Southeast  Level Estimated
Fri 06:21:12 PM 4.4460 98.3810 116° Southeast 452 520 35,000  Level FlightAware ADS-B
Fri 06:21:57 PM 4.4030 98.4610 118° Southeast 452 520 35,000  Level FlightAware ADS-B
Fri 06:22:37 PM 4.3640 98.5330 119° Southeast 457 526 35,000  Level FlightAware ADS-B
Fri 06:23:17 PM 4.3190 98.6140 119° Southeast 465 535 35,000  Level FlightAware ADS-B
Fri 06:23:57 PM 4.2790 98.6870 119° Southeast 464 534 35,000  Level FlightAware ADS-B
Fri 06:24:42 PM 4.2320 98.7740 118° Southeast 465 535 35,000  Level FlightAware ADS-B
Fri 06:25:27 PM 4.1870 98.8570 119° Southeast 464 534 35,000  Level FlightAware ADS-B
Fri 06:26:07 PM 4.1450 98.9340 119° Southeast 463 533 35,000  Level FlightAware ADS-B
Fri 06:26:47 PM 4.1030 99.0100 119° Southeast 460 529 35,000  Level FlightAware ADS-B
Fri 06:27:32 PM 4.0580 99.0930 119° Southeast 458 527 35,000  Level FlightAware ADS-B
Fri 06:28:12 PM 4.0180 99.1660 119° Southeast 458 527 35,000  Level FlightAware ADS-B
Fri 06:28:52 PM 3.9760 99.2430 119° Southeast 459 528 35,000  Level FlightAware ADS-B
Fri 06:29:37 PM 3.9310 99.3270 118° Southeast 457 526 35,000  Level FlightAware ADS-B
Fri 06:30:17 PM 3.8910 99.4000 119° Southeast 455 524 35,000  Level FlightAware ADS-B
Fri 06:31:02 PM 3.8440 99.4840 119° Southeast 455 524 35,000  Level FlightAware ADS-B
Fri 06:31:42 PM 3.8050 99.5570 118° Southeast 455 524 35,000  Level FlightAware ADS-B
Fri 06:32:27 PM 3.7590 99.6410 119° Southeast 455 524 35,000  Level FlightAware ADS-B
Fri 06:33:07 PM 3.7190 99.7150 118° Southeast 456 525 35,000  Level FlightAware ADS-B
Fri 06:33:47 PM 3.6780 99.7890 119° Southeast 457 526 35,000  Level FlightAware ADS-B
Fri 06:34:32 PM 3.6320 99.8720 119° Southeast 459 528 35,000  Level FlightAware ADS-B
Fri 06:35:12 PM 3.5910 99.9480 118° Southeast 460 529 35,000  Level FlightAware ADS-B
Fri 06:35:57 PM 3.5470 100.0280 119° Southeast 462 532 35,000  Level FlightAware ADS-B
Fri 06:36:37 PM 3.5060 100.1030 119° Southeast 464 534 35,000  Level FlightAware ADS-B
Fri 06:37:07 PM 3.4770 100.1550 119° Southeast 465 535 35,000  Level FlightAware ADS-B
Fri 06:38:02 PM 3.4160 100.2680 118° Southeast 465 535 35,000 -63 Level FlightAware ADS-B
Fri 06:38:42 PM 3.3780 100.3440 117° Southeast 454 522 34,900 -1,350 Descending FlightAware ADS-B
Fri 06:39:22 PM 3.3420 100.4200 115° Southeast 452 520 33,200 -2,400 Descending FlightAware ADS-B
Fri 06:40:02 PM 3.3090 100.4870 116° Southeast 446 513 31,700 -2,280 Descending FlightAware ADS-B
Fri 06:41:02 PM 3.2470 100.5960 120° Southeast 437 503 29,400 -2,286 Descending FlightAware ADS-B
Fri 06:41:47 PM 3.2030 100.6720 120° Southeast 433 498 27,700 -2,118 Descending FlightAware ADS-B
Fri 06:42:27 PM 3.1650 100.7400 119° Southeast 427 491 26,400 -1,950 Descending FlightAware ADS-B
Fri 06:43:07 PM 3.1280 100.8040 120° Southeast 420 483 25,100 -2,047 Descending FlightAware ADS-B
Fri 06:43:52 PM 3.0820 100.8840 120° Southeast 411 473 23,500 -1,835 Descending FlightAware ADS-B
Fri 06:44:32 PM 3.0500 100.9420 119° Southeast 401 461 22,500 -1,482 Descending FlightAware ADS-B
Fri 06:45:17 PM 3.0070 101.0170 120° Southeast 384 442 21,400 -1,553 Descending FlightAware ADS-B
Fri 06:45:57 PM 2.9710 101.0800 120° Southeast 373 429 20,300 -1,575 Descending FlightAware ADS-B
Fri 06:46:37 PM 2.9380 101.1380 120° Southeast 364 419 19,300 -1,575 Descending FlightAware ADS-B
Fri 06:47:17 PM 2.9050 101.1960 120° Southeast 359 413 18,200 -1,760 Descending FlightAware ADS-B
Fri 06:47:52 PM 2.8760 101.2470 120° Southeast 352 405 17,100 -1,867 Descending FlightAware ADS-B
Fri 06:48:47 PM 2.8310 101.3240 120° Southeast 345 397 15,400 -1,768 Descending FlightAware ADS-B
Fri 06:49:27 PM 2.7930 101.3700 130° Southeast 340 391 14,300 -1,768 Descending FlightAware ADS-B
Fri 06:50:22 PM 2.7410 101.4420 126° Southeast 333 383 12,600 -1,958 Descending FlightAware ADS-B
Fri 06:51:02 PM 2.7070 101.4930 124° Southeast 322 371 11,200 -2,047 Descending FlightAware ADS-B
Fri 06:51:47 PM 2.6730 101.5450 123° Southeast 317 365 9,700 -1,765 Descending FlightAware ADS-B
Fri 06:52:27 PM 2.6410 101.5930 124° Southeast 298 343 8,700 -1,292 Descending FlightAware ADS-B
Fri 06:52:52 PM 2.6240 101.6190 123° Southeast 282 325 8,300 -873 Descending FlightAware ADS-B
Fri 06:53:22 PM 2.6020 101.6510 125° Southeast 262 302 7,900 -436 Descending FlightAware ADS-B
Fri 06:53:47 PM 2.5880 101.6730 122° Southeast 262 302 7,900 -1,300 Level FlightAware ADS-B
Fri 06:54:22 PM 2.5650 101.7080 123° Southeast 254 292 6,600 -1,662 Descending FlightAware ADS-B
Fri 06:54:52 PM 2.5460 101.7360 124° Southeast 246 283 6,100 -857 Descending FlightAware ADS-B
Fri 06:55:32 PM 2.5380 101.7810 100° East 228 262 5,600 -1,040 Descending FlightAware ADS-B
Fri 06:56:07 PM 2.5690 101.7950 24° Northeast 204 235 4,800 -1,300 Descending FlightAware ADS-B
Fri 06:56:32 PM 2.5890 101.7960 North 196 226 4,300 -1,467 Descending FlightAware ADS-B
Fri 06:56:52 PM 2.6090 101.7890 341° North 184 212 3,700 -1,733 Descending FlightAware ADS-B
Fri 06:57:17 PM 2.6280 101.7750 324° Northwest 175 201 3,000 -1,418 Descending FlightAware ADS-B
Fri 06:57:47 PM 2.6420 101.7660 327° Northwest 168 193 2,400 -1,500 Descending FlightAware ADS-B
Fri 06:58:17 PM 2.6620 101.7530 327° Northwest 166 191 1,500 -1,108 Descending FlightAware ADS-B
Fri 06:58:52 PM 2.6820 101.7390 325° Northwest 166 191 1,200 -514 Descending FlightAware ADS-B

Login

Don't have an account? Register now (free) for customized features, flight alerts, and more!